createdAt,value
2023-02-22T04:56:54.607Z,4.80
2023-02-22T04:59:58.622Z,4.90
2023-02-22T05:03:01.566Z,5.10
2023-02-22T05:06:04.691Z,5.43
2023-02-22T05:09:07.451Z,4.65
2023-02-22T05:12:10.586Z,5.18
2023-02-22T05:15:21.416Z,5.37
2023-02-22T05:18:24.299Z,4.97
2023-02-22T05:21:27.005Z,5.18
2023-02-22T05:24:30.192Z,5.72
2023-02-22T05:27:32.826Z,6.07
2023-02-22T05:30:39.885Z,6.15
2023-02-22T05:33:43.119Z,5.85
2023-02-22T05:36:46.540Z,5.70
2023-02-22T05:39:50.998Z,5.75
2023-02-22T05:42:54.684Z,5.85
2023-02-22T05:45:57.226Z,5.90
2023-02-22T05:49:00.201Z,5.90
2023-02-22T05:52:02.855Z,5.60
2023-02-22T05:55:06.585Z,5.70
2023-02-22T05:58:09.159Z,5.50
2023-02-22T06:01:12.611Z,5.53
2023-02-22T06:04:15.490Z,6.28
2023-02-22T06:07:18.097Z,5.87
2023-02-22T06:10:22.883Z,5.70
2023-02-22T06:13:28.433Z,5.82
2023-02-22T06:16:31.938Z,6.53
2023-02-22T06:19:34.998Z,6.50
2023-02-22T06:22:38.182Z,6.07
2023-02-22T06:25:40.788Z,6.53
2023-02-22T06:28:43.731Z,5.95
2023-02-22T06:31:46.479Z,5.43
2023-02-22T06:34:49.382Z,5.60
2023-02-22T06:37:52.156Z,5.60
2023-02-22T06:40:55.410Z,6.00
2023-02-22T06:43:58.123Z,6.57
2023-02-22T06:47:01.281Z,6.05
2023-02-22T06:50:04.138Z,5.80
2023-02-22T06:53:07.469Z,6.12
2023-02-22T06:56:10.203Z,5.70
2023-02-22T06:59:13.064Z,6.00
2023-02-22T07:02:15.763Z,6.10
2023-02-22T07:05:21.972Z,6.03
2023-02-22T07:08:24.883Z,6.15
2023-02-22T07:11:27.781Z,6.55
2023-02-22T07:14:30.550Z,6.25
2023-02-22T07:17:33.689Z,6.47
2023-02-22T07:20:36.376Z,6.20
2023-02-22T07:23:39.735Z,5.80
2023-02-22T07:26:42.648Z,6.45
2023-02-22T07:29:46.784Z,6.15
2023-02-22T07:32:49.395Z,6.18
2023-02-22T07:35:52.411Z,6.55
2023-02-22T07:38:54.993Z,7.05
2023-02-22T07:41:59.293Z,7.05
2023-02-22T07:45:04.793Z,7.18
2023-02-22T07:48:08.427Z,7.43
2023-02-22T07:51:11.372Z,5.90
2023-02-22T07:54:14.278Z,6.03
2023-02-22T07:57:16.895Z,6.60
2023-02-22T08:00:32.014Z,6.25
2023-02-22T08:03:36.881Z,5.50
2023-02-22T08:06:39.856Z,5.65
2023-02-22T08:09:42.818Z,6.40
2023-02-22T08:12:46.550Z,5.78
2023-02-22T08:15:52.418Z,6.15
2023-02-22T08:18:54.966Z,5.62
2023-02-22T08:21:57.966Z,5.78
2023-02-22T08:25:00.552Z,5.85
2023-02-22T08:28:07.300Z,6.15
2023-02-22T08:31:10.647Z,5.80
2023-02-22T08:34:14.090Z,5.80
2023-02-22T08:37:18.135Z,5.82
2023-02-22T08:40:23.500Z,5.70
2023-02-22T08:43:26.541Z,6.03
2023-02-22T08:46:29.632Z,5.75
2023-02-22T08:49:32.809Z,5.72
2023-02-22T08:52:35.763Z,5.90
2023-02-22T08:55:39.917Z,5.57
2023-02-22T08:58:42.821Z,5.40
2023-02-22T09:01:45.746Z,4.87
2023-02-22T09:04:49.251Z,5.20
2023-02-22T09:07:51.868Z,5.20
2023-02-22T09:10:54.959Z,5.32
2023-02-22T09:13:57.554Z,5.32
2023-02-22T09:17:00.754Z,5.85
2023-02-22T09:20:05.908Z,5.43
2023-02-22T09:23:09.844Z,5.62
2023-02-22T09:26:12.503Z,5.97
2023-02-22T09:29:15.605Z,6.03
2023-02-22T09:32:18.901Z,6.15
2023-02-22T09:35:27.239Z,5.90
2023-02-22T09:38:30.365Z,6.40
2023-02-22T09:41:56.685Z,6.15
2023-02-22T09:45:22.825Z,7.35
2023-02-22T09:48:26.427Z,7.47
2023-02-22T09:51:37.441Z,7.82
2023-02-22T09:54:53.191Z,7.37
2023-02-22T09:57:57.849Z,7.82
2023-02-22T10:01:39.094Z,7.55
2023-02-22T10:04:53.008Z,7.70
2023-02-22T10:08:01.120Z,8.07
2023-02-22T10:11:58.701Z,8.03
2023-02-22T10:15:16.347Z,7.53
2023-02-22T10:19:00.169Z,8.00
2023-02-22T10:22:15.218Z,7.57
2023-02-22T10:25:20.131Z,8.02
2023-02-22T10:28:37.417Z,7.82
2023-02-22T10:31:49.121Z,8.10
2023-02-22T10:34:54.542Z,7.40
2023-02-22T10:38:02.648Z,7.05
2023-02-22T10:41:09.081Z,6.90
2023-02-22T10:44:12.134Z,7.05
2023-02-22T10:47:17.924Z,6.43
2023-02-22T10:50:22.449Z,7.65
2023-02-22T10:53:28.669Z,7.65
2023-02-22T10:56:31.796Z,8.13
2023-02-22T10:59:37.122Z,8.13
2023-02-22T11:02:52.362Z,8.30
2023-02-22T11:05:54.969Z,7.32
2023-02-22T11:09:06.588Z,7.75
2023-02-22T11:12:11.778Z,7.65
2023-02-22T11:15:18.868Z,7.87
2023-02-22T11:18:29.192Z,7.85
2023-02-22T11:21:35.169Z,7.22
2023-02-22T11:24:49.199Z,7.32
2023-02-22T11:27:54.056Z,7.85
2023-02-22T11:30:59.478Z,7.93
2023-02-22T11:34:03.895Z,8.00
2023-02-22T11:37:36.720Z,7.80
2023-02-22T11:40:40.184Z,8.35
2023-02-22T11:43:48.032Z,7.95
2023-02-22T11:46:54.132Z,8.40
2023-02-22T11:49:57.928Z,8.35
2023-02-22T11:53:26.751Z,8.50
2023-02-22T11:56:42.574Z,8.32
2023-02-22T11:59:51.692Z,8.57
2023-02-22T12:03:14.358Z,8.03
2023-02-22T12:06:24.827Z,8.05
2023-02-22T12:09:43.435Z,7.82
2023-02-22T12:13:05.330Z,7.80
2023-02-22T12:16:20.922Z,8.55
2023-02-22T12:19:39.063Z,8.13
2023-02-22T12:23:30.246Z,8.40
2023-02-22T12:26:41.305Z,9.32
2023-02-22T12:29:51.927Z,9.02
2023-02-22T12:32:59.772Z,8.90
2023-02-22T12:36:03.620Z,8.77
2023-02-22T12:39:25.488Z,8.30
2023-02-22T12:42:53.517Z,9.18
2023-02-22T12:46:09.824Z,8.93
2023-02-22T12:49:36.725Z,9.27
2023-02-22T12:53:04.380Z,9.40
2023-02-22T12:56:25.413Z,9.52
2023-02-22T12:59:41.818Z,9.57
2023-02-22T13:02:51.414Z,10.40
2023-02-22T13:06:28.100Z,9.98
2023-02-22T13:09:42.259Z,9.57
2023-02-22T13:13:09.959Z,10.52
2023-02-22T13:16:30.338Z,9.38
2023-02-22T13:20:02.881Z,9.80
2023-02-22T13:23:18.992Z,9.20
2023-02-22T13:26:47.433Z,10.23
2023-02-22T13:29:58.073Z,9.75
2023-02-22T13:33:10.646Z,9.63
2023-02-22T13:36:25.713Z,9.80
2023-02-22T13:40:06.694Z,10.30
2023-02-22T13:43:28.086Z,10.10
2023-02-22T13:47:20.279Z,9.38
2023-02-22T13:50:48.759Z,9.55
2023-02-22T13:53:57.074Z,9.35
2023-02-22T14:00:14.900Z,9.65
2023-02-22T14:03:24.153Z,9.52
2023-02-22T14:06:38.488Z,9.60
2023-02-22T14:09:51.896Z,8.63
2023-02-22T14:13:05.248Z,9.15
2023-02-22T14:16:08.075Z,9.18
2023-02-22T14:19:13.426Z,9.57
2023-02-22T14:22:29.708Z,9.25
2023-02-22T14:25:39.282Z,9.05
2023-02-22T14:29:01.114Z,9.02
2023-02-22T14:32:07.778Z,8.80
2023-02-22T14:35:26.418Z,10.13
2023-02-22T14:38:31.559Z,9.02
2023-02-22T14:41:37.717Z,9.73
2023-02-22T14:45:14.601Z,9.27
2023-02-22T14:48:39.548Z,9.85
2023-02-22T14:51:50.391Z,9.05
2023-02-22T14:54:58.056Z,9.45
2023-02-22T14:58:08.762Z,9.43
2023-02-22T15:01:48.936Z,9.38
2023-02-22T15:04:56.443Z,9.10
2023-02-22T15:08:02.477Z,9.63
2023-02-22T15:11:07.495Z,9.27
2023-02-22T15:14:28.493Z,9.23
2023-02-22T15:17:31.115Z,10.05
2023-02-22T15:20:38.308Z,9.80
2023-02-22T15:23:51.268Z,10.70
2023-02-22T15:27:01.552Z,10.15
2023-02-22T15:30:18.891Z,10.05
2023-02-22T15:33:24.428Z,10.32
2023-02-22T15:36:31.147Z,9.85
2023-02-22T15:39:34.535Z,10.55
2023-02-22T15:42:44.242Z,10.80
2023-02-22T15:45:47.649Z,9.65
2023-02-22T15:49:06.676Z,10.52
2023-02-22T15:52:21.234Z,9.80
2023-02-22T15:55:27.977Z,9.50
2023-02-22T15:58:31.230Z,9.85
2023-02-22T16:01:42.371Z,9.80
2023-02-22T16:04:51.361Z,9.38
2023-02-22T16:07:58.426Z,7.10
2023-02-22T16:11:05.872Z,7.37
2023-02-22T16:14:39.569Z,7.45
2023-02-22T16:17:56.104Z,7.25
2023-02-22T16:21:07.287Z,7.03
2023-02-22T16:24:26.283Z,8.13
2023-02-22T16:27:28.974Z,6.65
2023-02-22T16:30:39.467Z,7.10
2023-02-22T16:33:44.437Z,6.75
2023-02-22T16:36:51.612Z,6.93
2023-02-22T16:39:54.322Z,7.80
2023-02-22T16:42:57.318Z,7.37
2023-02-22T16:46:04.400Z,7.68
2023-02-22T16:49:09.370Z,7.35
2023-02-22T16:52:12.297Z,6.97
2023-02-22T16:55:20.475Z,7.97
2023-02-22T16:58:27.924Z,8.02
